createdAt,value
2022-11-20T00:01:09.671Z,100349.50
2022-11-20T00:02:12.159Z,100353.00
2022-11-20T00:03:14.688Z,100357.41
2022-11-20T00:04:16.873Z,100348.63
2022-11-20T00:05:19.427Z,100353.91
2022-11-20T00:06:23.522Z,100353.03
2022-11-20T00:07:25.771Z,100354.81
2022-11-20T00:08:28.222Z,100355.72
2022-11-20T00:09:30.475Z,100356.59
2022-11-20T00:10:33.209Z,100353.94
2022-11-20T00:11:35.358Z,100357.44
2022-11-20T00:12:37.524Z,100355.69
2022-11-20T00:13:40.224Z,100360.06
2022-11-20T00:14:42.421Z,100355.69
2022-11-20T00:15:44.892Z,100352.16
2022-11-20T00:16:47.267Z,100357.44
2022-11-20T00:17:49.470Z,100362.72
2022-11-20T00:18:52.161Z,100357.47
2022-11-20T00:19:54.547Z,100354.00
2022-11-20T00:21:09.228Z,100355.72
2022-11-20T00:22:11.504Z,100362.75
2022-11-20T00:23:13.933Z,100357.47
2022-11-20T00:24:16.079Z,100358.38
2022-11-20T00:25:18.717Z,100357.50
2022-11-20T00:26:22.227Z,100355.72
2022-11-20T00:27:24.864Z,100355.69
2022-11-20T00:28:27.177Z,100353.06
2022-11-20T00:29:29.329Z,100356.56
2022-11-20T00:30:32.253Z,100352.19
2022-11-20T00:31:36.188Z,100354.81
2022-11-20T00:32:38.431Z,100349.53
2022-11-20T00:33:41.572Z,100353.09
2022-11-20T00:34:43.901Z,100354.88
2022-11-20T00:35:46.288Z,100358.31
2022-11-20T00:36:48.863Z,100355.69
2022-11-20T00:37:51.189Z,100350.41
2022-11-20T00:38:55.051Z,100350.47
2022-11-20T00:39:57.485Z,100354.88
2022-11-20T00:41:01.201Z,100347.84
2022-11-20T00:42:03.373Z,100363.66
2022-11-20T00:43:05.776Z,100361.88
2022-11-20T00:44:07.910Z,100361.00
2022-11-20T00:45:10.421Z,100360.13
2022-11-20T00:46:17.578Z,100360.94
2022-11-20T00:47:19.729Z,100363.56
2022-11-20T00:48:22.381Z,100358.31
2022-11-20T00:49:24.738Z,100357.44
2022-11-20T00:50:26.918Z,100353.97
2022-11-20T00:51:29.511Z,100356.59
2022-11-20T00:52:31.909Z,100356.59
2022-11-20T00:53:34.387Z,100353.09
2022-11-20T00:54:36.777Z,100358.34
2022-11-20T00:55:39.171Z,100353.09
2022-11-20T00:56:41.318Z,100354.84
2022-11-20T00:57:43.650Z,100357.47
2022-11-20T00:58:48.460Z,100355.72
2022-11-20T00:59:50.840Z,100360.13
2022-11-20T01:00:53.182Z,100364.50
2022-11-20T01:01:55.365Z,100361.88
2022-11-20T01:02:57.757Z,100361.00
2022-11-20T01:04:01.321Z,100356.59
2022-11-20T01:05:03.886Z,100365.31
2022-11-20T01:06:12.315Z,100363.50
2022-11-20T01:07:14.540Z,100360.03
2022-11-20T01:08:16.886Z,100370.53
2022-11-20T01:09:19.268Z,100362.56
2022-11-20T01:10:21.763Z,100354.72
2022-11-20T01:11:26.925Z,100358.31
2022-11-20T01:12:29.104Z,100357.44
2022-11-20T01:13:38.404Z,100360.06
2022-11-20T01:14:40.557Z,100361.84
2022-11-20T01:15:42.734Z,100360.09
2022-11-20T01:16:49.374Z,100361.84
2022-11-20T01:17:51.625Z,100370.66
2022-11-20T01:18:56.627Z,100364.53
2022-11-20T01:19:58.812Z,100368.91
2022-11-20T01:21:06.603Z,100362.75
2022-11-20T01:22:09.190Z,100362.72
2022-11-20T01:23:11.312Z,100367.13
2022-11-20T01:24:16.348Z,100370.63
2022-11-20T01:25:18.723Z,100366.28
2022-11-20T01:26:24.278Z,100367.13
2022-11-20T01:27:26.646Z,100368.00
2022-11-20T01:28:29.973Z,100366.25
2022-11-20T01:29:32.159Z,100364.50
2022-11-20T01:30:34.541Z,100364.50
2022-11-20T01:31:38.067Z,100360.97
2022-11-20T01:32:40.311Z,100365.34
2022-11-20T01:33:43.820Z,100370.66
2022-11-20T01:34:45.976Z,100363.63
2022-11-20T01:35:48.454Z,100362.75
2022-11-20T01:36:52.327Z,100362.72
2022-11-20T01:37:54.673Z,100357.47
2022-11-20T01:38:59.060Z,100360.97
2022-11-20T01:40:01.201Z,100354.84
2022-11-20T01:41:03.849Z,100354.84
2022-11-20T01:42:24.767Z,100358.34
2022-11-20T01:43:27.384Z,100363.59
2022-11-20T01:44:53.109Z,100362.72
2022-11-20T01:46:17.405Z,100363.59
2022-11-20T01:47:34.546Z,100361.84
2022-11-20T01:48:47.187Z,100357.47
2022-11-20T01:49:57.149Z,100358.34
2022-11-20T01:51:01.587Z,100355.69
2022-11-20T01:52:08.829Z,100342.50
2022-11-20T01:53:16.045Z,100352.16
2022-11-20T01:54:23.282Z,100353.88
2022-11-20T01:55:40.175Z,100353.03
2022-11-20T01:56:45.241Z,100355.69
2022-11-20T01:57:49.515Z,100346.88
2022-11-20T01:58:57.157Z,100351.28
2022-11-20T02:00:07.847Z,100332.81
2022-11-20T02:01:16.507Z,100342.50
2022-11-20T02:02:18.909Z,100350.44
2022-11-20T02:03:21.948Z,100345.16
2022-11-20T02:04:25.607Z,100346.06
2022-11-20T02:05:36.371Z,100350.44
2022-11-20T02:06:54.653Z,100348.63
2022-11-20T02:07:59.938Z,100339.00
2022-11-20T02:09:02.112Z,100351.34
2022-11-20T02:10:04.508Z,100341.66
2022-11-20T02:11:07.366Z,100346.97
2022-11-20T02:12:29.480Z,100342.59
2022-11-20T02:13:47.213Z,100343.50
2022-11-20T02:14:49.357Z,100340.84
2022-11-20T02:15:52.699Z,100340.00
2022-11-20T02:16:56.241Z,100342.63
2022-11-20T02:17:58.553Z,100343.50
2022-11-20T02:19:02.563Z,100343.47
2022-11-20T02:20:05.384Z,100344.38
2022-11-20T02:21:15.826Z,100332.13
2022-11-20T02:22:30.056Z,100332.97
2022-11-20T02:24:01.828Z,100328.59
2022-11-20T02:25:06.737Z,100331.22
2022-11-20T02:26:13.195Z,100336.50
2022-11-20T02:27:16.999Z,100328.63
2022-11-20T02:28:19.515Z,100332.09
2022-11-20T02:29:39.595Z,100329.47
2022-11-20T02:30:41.792Z,100327.72
2022-11-20T02:31:44.754Z,100333.88
2022-11-20T02:32:47.096Z,100325.97
2022-11-20T02:33:55.799Z,100325.97
2022-11-20T02:34:58.450Z,100325.13
2022-11-20T02:36:00.665Z,100325.09
2022-11-20T02:37:03.012Z,100321.59
2022-11-20T02:38:05.484Z,100326.88
2022-11-20T02:39:08.200Z,100317.22
2022-11-20T02:40:11.368Z,100318.06
2022-11-20T02:41:13.493Z,100323.31
2022-11-20T02:42:15.891Z,100312.81
2022-11-20T02:43:18.030Z,100321.59
2022-11-20T02:44:21.082Z,100319.81
2022-11-20T02:45:24.576Z,100318.09
2022-11-20T02:46:26.800Z,100315.44
2022-11-20T02:47:29.116Z,100318.09
2022-11-20T02:48:33.802Z,100318.09
2022-11-20T02:49:36.252Z,100320.75
2022-11-20T02:50:40.595Z,100316.34
2022-11-20T02:51:42.743Z,100319.84
2022-11-20T02:52:45.156Z,100312.81
2022-11-20T02:53:47.498Z,100316.34
2022-11-20T02:54:49.680Z,100318.09
2022-11-20T02:55:52.384Z,100311.94
2022-11-20T02:56:54.591Z,100317.22
2022-11-20T02:57:56.915Z,100317.22
2022-11-20T02:58:59.322Z,100311.97
2022-11-20T03:00:01.773Z,100310.19
2022-11-20T03:01:04.434Z,100311.06
2022-11-20T03:02:06.620Z,100314.56
2022-11-20T03:03:08.785Z,100310.22
2022-11-20T03:04:11.188Z,100309.34
2022-11-20T03:05:13.579Z,100308.44
2022-11-20T03:06:17.544Z,100318.09
2022-11-20T03:07:19.750Z,100315.44
2022-11-20T03:08:22.086Z,100308.47
2022-11-20T03:09:24.500Z,100317.22
2022-11-20T03:10:26.892Z,100311.94
2022-11-20T03:11:29.519Z,100314.59
2022-11-20T03:12:31.710Z,100305.81
2022-11-20T03:13:34.606Z,100306.69
2022-11-20T03:14:36.865Z,100305.81
2022-11-20T03:15:39.273Z,100314.56
2022-11-20T03:16:41.625Z,100313.72
2022-11-20T03:17:43.981Z,100308.44
2022-11-20T03:18:46.245Z,100311.09
2022-11-20T03:19:48.397Z,100315.47
2022-11-20T03:20:50.759Z,100314.56
2022-11-20T03:21:52.958Z,100318.97
2022-11-20T03:22:56.086Z,100319.84
2022-11-20T03:23:58.466Z,100315.44
2022-11-20T03:25:00.772Z,100317.19
2022-11-20T03:26:17.403Z,100318.06
2022-11-20T03:27:19.612Z,100318.94
2022-11-20T03:28:21.770Z,100318.03
2022-11-20T03:29:23.999Z,100317.19
2022-11-20T03:30:30.554Z,100313.69
2022-11-20T03:31:36.166Z,100315.44
2022-11-20T03:32:38.430Z,100311.03
2022-11-20T03:33:42.090Z,100308.41
2022-11-20T03:34:44.406Z,100304.00
2022-11-20T03:35:46.571Z,100307.53
2022-11-20T03:36:49.081Z,100308.41
2022-11-20T03:37:51.447Z,100306.69
2022-11-20T03:38:58.022Z,100302.31
2022-11-20T03:40:00.217Z,100300.53
2022-11-20T03:41:05.193Z,100300.50
2022-11-20T03:42:27.307Z,100304.88
2022-11-20T03:43:29.724Z,100301.34
2022-11-20T03:44:31.909Z,100302.25
2022-11-20T03:45:34.257Z,100301.38
2022-11-20T03:46:37.017Z,100305.78
2022-11-20T03:47:39.222Z,100294.38
2022-11-20T03:48:41.390Z,100296.13
2022-11-20T03:49:43.567Z,100298.72
2022-11-20T03:50:48.527Z,100296.09
2022-11-20T03:51:50.877Z,100297.88
2022-11-20T03:52:53.065Z,100296.03
2022-11-20T03:53:58.211Z,100296.91
2022-11-20T03:55:00.354Z,100290.81
2022-11-20T03:56:03.080Z,100293.47
2022-11-20T03:57:05.452Z,100290.81
2022-11-20T03:58:07.650Z,100290.81
2022-11-20T03:59:11.675Z,100298.69
2022-11-20T04:00:14.560Z,100292.50
2022-11-20T04:01:22.653Z,100293.38
2022-11-20T04:02:25.301Z,100286.38
2022-11-20T04:03:27.521Z,100292.56
2022-11-20T04:04:29.877Z,100282.91
2022-11-20T04:05:34.365Z,100283.81
2022-11-20T04:06:38.731Z,100283.84
2022-11-20T04:07:41.404Z,100288.19
2022-11-20T04:08:43.746Z,100283.81
2022-11-20T04:09:46.126Z,100285.59
2022-11-20T04:10:48.588Z,100292.56
2022-11-20T04:11:50.964Z,100282.06
2022-11-20T04:12:53.143Z,100289.06
2022-11-20T04:14:00.354Z,100288.19
2022-11-20T04:15:02.895Z,100282.91
2022-11-20T04:16:06.722Z,100285.56
2022-11-20T04:17:09.129Z,100282.91
2022-11-20T04:18:11.353Z,100291.63
2022-11-20T04:19:16.577Z,100285.50
2022-11-20T04:20:18.933Z,100280.25
2022-11-20T04:21:21.102Z,100282.91
2022-11-20T04:22:23.293Z,100279.41
2022-11-20T04:23:28.801Z,100279.41
2022-11-20T04:24:31.296Z,100285.53
2022-11-20T04:25:33.479Z,100288.19
2022-11-20T04:26:35.851Z,100279.44
2022-11-20T04:27:38.185Z,100278.56
2022-11-20T04:28:40.693Z,100281.16
2022-11-20T04:29:43.429Z,100280.31
2022-11-20T04:30:45.631Z,100280.28
2022-11-20T04:31:47.822Z,100282.91
2022-11-20T04:32:50.357Z,100276.78
2022-11-20T04:33:53.175Z,100276.78
2022-11-20T04:34:55.317Z,100276.78
2022-11-20T04:36:02.557Z,100275.91
2022-11-20T04:37:04.731Z,100280.28
2022-11-20T04:38:07.044Z,100275.91
2022-11-20T04:39:14.100Z,100272.41
2022-11-20T04:40:16.303Z,100272.41
2022-11-20T04:41:21.041Z,100275.00
2022-11-20T04:42:29.690Z,100268.00
2022-11-20T04:43:33.282Z,100272.41
2022-11-20T04:44:35.643Z,100273.28
2022-11-20T04:45:37.790Z,100275.94
2022-11-20T04:46:43.953Z,100274.19
2022-11-20T04:47:46.382Z,100279.41
2022-11-20T04:48:49.096Z,100288.19
2022-11-20T04:49:51.418Z,100276.81
2022-11-20T04:50:54.400Z,100288.19
2022-11-20T04:51:56.871Z,100287.31
2022-11-20T04:52:59.226Z,100289.09
2022-11-20T04:54:01.443Z,100285.59
2022-11-20T04:55:04.309Z,100284.69
2022-11-20T04:56:09.081Z,100284.66
2022-11-20T04:57:14.398Z,100284.69
2022-11-20T04:58:17.788Z,100281.19
2022-11-20T04:59:20.334Z,100283.81
2022-11-20T05:00:23.111Z,100284.69
2022-11-20T05:01:25.927Z,100289.06
2022-11-20T05:02:28.147Z,100293.44
2022-11-20T05:03:30.829Z,100290.78
2022-11-20T05:04:33.043Z,100290.78
2022-11-20T05:05:35.927Z,100295.16
2022-11-20T05:06:38.283Z,100290.75
2022-11-20T05:07:40.709Z,100293.38
2022-11-20T05:08:46.036Z,100292.53
2022-11-20T05:09:48.241Z,100293.41
2022-11-20T05:10:50.408Z,100294.25
2022-11-20T05:11:52.557Z,100290.75
2022-11-20T05:12:54.961Z,100292.50
2022-11-20T05:14:00.305Z,100296.03
2022-11-20T05:15:02.460Z,100295.16
2022-11-20T05:16:14.234Z,100302.09
2022-11-20T05:17:16.801Z,100299.50
2022-11-20T05:18:19.204Z,100290.72
2022-11-20T05:19:21.678Z,100296.91
2022-11-20T05:20:24.180Z,100289.91
2022-11-20T05:21:26.368Z,100294.25
2022-11-20T05:22:28.697Z,100303.88
2022-11-20T05:23:32.746Z,100297.78
2022-11-20T05:24:34.938Z,100293.41
2022-11-20T05:25:37.381Z,100298.69
2022-11-20T05:26:39.668Z,100304.81
2022-11-20T05:27:41.989Z,100302.22
2022-11-20T05:28:44.858Z,100299.56
2022-11-20T05:29:47.031Z,100302.22
2022-11-20T05:30:50.176Z,100293.47
2022-11-20T05:31:52.333Z,100296.09
2022-11-20T05:32:54.605Z,100294.34
2022-11-20T05:33:58.234Z,100296.09
2022-11-20T05:35:00.495Z,100289.94
2022-11-20T05:36:04.690Z,100289.06
2022-11-20T05:37:07.108Z,100296.97
2022-11-20T05:38:09.681Z,100287.38
2022-11-20T05:39:12.117Z,100288.22
2022-11-20T05:40:14.425Z,100290.84
2022-11-20T05:41:19.065Z,100293.44
2022-11-20T05:42:33.485Z,100289.94
2022-11-20T05:43:37.190Z,100294.31
2022-11-20T05:44:39.870Z,100286.44
2022-11-20T05:45:42.046Z,100282.94
2022-11-20T05:46:44.204Z,100287.31
2022-11-20T05:47:46.369Z,100287.31
2022-11-20T05:48:48.668Z,100284.69
2022-11-20T05:49:51.058Z,100281.16
2022-11-20T05:50:53.257Z,100281.19
2022-11-20T05:51:55.677Z,100281.19
2022-11-20T05:53:01.497Z,100273.28
2022-11-20T05:54:03.653Z,100271.53
2022-11-20T05:55:06.500Z,100276.81
2022-11-20T05:56:15.165Z,100269.81
2022-11-20T05:57:17.561Z,100271.56
2022-11-20T05:58:19.904Z,100273.34
2022-11-20T05:59:22.361Z,100274.19
2022-11-20T06:00:25.239Z,100271.56
2022-11-20T06:01:27.475Z,100271.56
2022-11-20T06:02:29.963Z,100272.47
2022-11-20T06:03:32.411Z,100281.19
2022-11-20T06:04:34.813Z,100272.47
2022-11-20T06:05:37.002Z,100273.31
2022-11-20T06:06:39.523Z,100275.97
2022-11-20T06:07:41.803Z,100274.19
2022-11-20T06:08:45.120Z,100275.09
2022-11-20T06:09:47.306Z,100271.56
2022-11-20T06:10:49.448Z,100270.66
2022-11-20T06:11:51.817Z,100274.16
2022-11-20T06:12:54.047Z,100273.28
2022-11-20T06:13:56.444Z,100266.31
2022-11-20T06:14:58.874Z,100268.06
2022-11-20T06:16:01.117Z,100276.81
2022-11-20T06:17:03.306Z,100269.81
2022-11-20T06:18:05.590Z,100272.44
2022-11-20T06:19:07.757Z,100274.19
2022-11-20T06:20:10.919Z,100276.81
2022-11-20T06:21:16.691Z,100273.31
2022-11-20T06:22:18.850Z,100268.97
2022-11-20T06:23:21.060Z,100270.69
2022-11-20T06:24:23.784Z,100279.47
2022-11-20T06:25:26.307Z,100278.59
2022-11-20T06:26:28.856Z,100274.22
2022-11-20T06:27:31.175Z,100276.84
2022-11-20T06:28:33.500Z,100279.47
2022-11-20T06:29:35.839Z,100274.19
2022-11-20T06:30:38.180Z,100274.22
2022-11-20T06:31:40.458Z,100278.59
2022-11-20T06:32:42.669Z,100275.09
2022-11-20T06:33:45.725Z,100275.97
2022-11-20T06:34:47.879Z,100275.94
2022-11-20T06:35:51.632Z,100271.56
2022-11-20T06:36:55.508Z,100275.09
2022-11-20T06:37:58.188Z,100276.84
2022-11-20T06:39:01.528Z,100270.72
2022-11-20T06:40:04.047Z,100272.44
2022-11-20T06:41:07.687Z,100272.47
2022-11-20T06:42:09.890Z,100270.72
2022-11-20T06:43:12.237Z,100274.22
2022-11-20T06:44:14.377Z,100273.34
2022-11-20T06:45:16.754Z,100271.59
2022-11-20T06:46:20.340Z,100279.47
2022-11-20T06:47:22.752Z,100277.75
2022-11-20T06:48:26.802Z,100275.09
2022-11-20T06:49:28.953Z,100269.84
2022-11-20T06:50:31.319Z,100274.22
2022-11-20T06:51:33.772Z,100276.00
2022-11-20T06:52:39.532Z,100272.47
2022-11-20T06:53:45.594Z,100269.84
2022-11-20T06:54:47.759Z,100268.97
2022-11-20T06:55:52.961Z,100267.19
2022-11-20T06:56:55.121Z,100273.38
2022-11-20T06:57:57.533Z,100268.94
2022-11-20T06:58:59.669Z,100275.09
2022-11-20T07:00:02.008Z,100269.88
2022-11-20T07:01:11.536Z,100268.97
2022-11-20T07:02:13.851Z,100269.00
2022-11-20T07:03:16.294Z,100271.63
2022-11-20T07:04:18.480Z,100268.09
2022-11-20T07:05:20.861Z,100276.88
2022-11-20T07:06:23.236Z,100277.75
2022-11-20T07:07:25.488Z,100269.00
2022-11-20T07:08:27.993Z,100270.75
2022-11-20T07:09:30.151Z,100273.38
2022-11-20T07:10:33.031Z,100276.00
2022-11-20T07:11:36.686Z,100276.84
2022-11-20T07:12:38.840Z,100268.09
2022-11-20T07:13:41.106Z,100264.59
2022-11-20T07:14:43.536Z,100269.00
2022-11-20T07:15:45.716Z,100265.50
2022-11-20T07:16:49.345Z,100264.59
2022-11-20T07:17:52.171Z,100264.63
2022-11-20T07:18:54.397Z,100261.09
2022-11-20T07:19:56.994Z,100265.50
2022-11-20T07:21:07.936Z,100260.22
2022-11-20T07:22:10.517Z,100261.09
2022-11-20T07:23:12.675Z,100257.59
2022-11-20T07:24:14.872Z,100251.44
2022-11-20T07:25:17.259Z,100257.56
2022-11-20T07:26:20.384Z,100252.31
2022-11-20T07:27:22.860Z,100256.72
2022-11-20T07:28:25.169Z,100256.72
2022-11-20T07:29:27.319Z,100259.34
2022-11-20T07:30:30.335Z,100261.97
2022-11-20T07:31:32.515Z,100254.94
2022-11-20T07:32:35.136Z,100253.16
2022-11-20T07:33:37.338Z,100261.94
2022-11-20T07:34:39.799Z,100255.78
2022-11-20T07:35:42.084Z,100260.19
2022-11-20T07:36:44.677Z,100257.56
2022-11-20T07:37:48.231Z,100256.66
2022-11-20T07:38:50.687Z,100261.06
2022-11-20T07:39:52.844Z,100257.53
2022-11-20T07:41:04.527Z,100254.91
2022-11-20T07:42:08.102Z,100256.66
2022-11-20T07:43:15.927Z,100247.91
2022-11-20T07:44:18.283Z,100253.19
2022-11-20T07:45:22.163Z,100254.06
2022-11-20T07:46:24.496Z,100256.69
2022-11-20T07:47:26.884Z,100259.28
2022-11-20T07:48:29.120Z,100251.41
2022-11-20T07:49:31.822Z,100255.78
2022-11-20T07:50:34.039Z,100247.91
2022-11-20T07:51:36.385Z,100254.91
2022-11-20T07:52:38.902Z,100246.16
2022-11-20T07:53:41.119Z,100253.19
2022-11-20T07:54:43.478Z,100248.78
2022-11-20T07:55:45.716Z,100253.16
2022-11-20T07:56:49.131Z,100249.63
2022-11-20T07:57:56.633Z,100250.53
2022-11-20T07:58:58.778Z,100249.63
2022-11-20T08:00:01.008Z,100247.91
2022-11-20T08:01:08.310Z,100254.94
2022-11-20T08:02:12.358Z,100249.69
2022-11-20T08:03:14.736Z,100242.66
2022-11-20T08:04:17.253Z,100249.69
2022-11-20T08:05:19.455Z,100241.75
2022-11-20T08:06:21.843Z,100244.41
2022-11-20T08:07:24.271Z,100240.88
2022-11-20T08:08:26.568Z,100240.88
2022-11-20T08:09:29.803Z,100240.88
2022-11-20T08:10:31.970Z,100240.88
2022-11-20T08:11:53.189Z,100235.56
2022-11-20T08:13:14.421Z,100237.31
2022-11-20T08:14:16.854Z,100231.13
2022-11-20T08:15:19.040Z,100229.41
2022-11-20T08:16:21.708Z,100232.00
2022-11-20T08:17:24.074Z,100238.06
2022-11-20T08:18:31.635Z,100237.16
2022-11-20T08:19:34.245Z,100236.22
2022-11-20T08:20:36.451Z,100235.28
2022-11-20T08:21:39.084Z,100234.38
2022-11-20T08:22:41.638Z,100237.00
2022-11-20T08:23:44.026Z,100244.88
2022-11-20T08:24:46.186Z,100236.91
2022-11-20T08:25:51.151Z,100235.97
2022-11-20T08:26:53.502Z,100235.09
2022-11-20T08:28:00.363Z,100239.41
2022-11-20T08:29:02.983Z,100241.09
2022-11-20T08:30:06.139Z,100242.00
2022-11-20T08:31:08.721Z,100231.44
2022-11-20T08:32:10.940Z,100234.91
2022-11-20T08:33:13.245Z,100239.38
2022-11-20T08:34:18.982Z,100242.88
2022-11-20T08:35:22.849Z,100238.50
2022-11-20T08:36:25.650Z,100235.81
2022-11-20T08:37:27.818Z,100237.56
2022-11-20T08:38:30.947Z,100237.53
2022-11-20T08:39:33.295Z,100238.34
2022-11-20T08:40:35.491Z,100236.72
2022-11-20T08:41:37.927Z,100228.81
2022-11-20T08:42:51.205Z,100234.94
2022-11-20T08:43:56.802Z,100232.28
2022-11-20T08:44:59.010Z,100233.94
2022-11-20T08:46:01.183Z,100226.00
2022-11-20T08:47:03.612Z,100234.06
2022-11-20T08:48:06.348Z,100224.44
2022-11-20T08:49:11.147Z,100229.63
2022-11-20T08:50:15.927Z,100231.41
2022-11-20T08:51:18.408Z,100222.63
2022-11-20T08:52:20.794Z,100225.22
2022-11-20T08:53:22.929Z,100225.16
2022-11-20T08:54:25.427Z,100226.88
2022-11-20T08:55:28.711Z,100226.94
2022-11-20T08:56:31.061Z,100223.38
2022-11-20T08:57:34.591Z,100225.00
2022-11-20T08:59:01.950Z,100227.44
2022-11-20T09:00:06.069Z,100219.56
2022-11-20T09:01:09.335Z,100230.19
2022-11-20T09:02:11.562Z,100229.28
2022-11-20T09:03:14.429Z,100217.00
2022-11-20T09:04:16.980Z,100225.84
2022-11-20T09:05:19.339Z,100220.50
2022-11-20T09:06:21.530Z,100216.13
2022-11-20T09:07:23.999Z,100221.50
2022-11-20T09:08:26.231Z,100220.63
2022-11-20T09:09:29.156Z,100211.72
2022-11-20T09:10:31.776Z,100222.41
2022-11-20T09:11:36.323Z,100210.06
2022-11-20T09:12:38.656Z,100220.63
2022-11-20T09:13:40.844Z,100210.88
2022-11-20T09:14:43.023Z,100211.66
2022-11-20T09:15:45.562Z,100214.25
2022-11-20T09:16:47.787Z,100208.94
2022-11-20T09:17:54.290Z,100204.50
2022-11-20T09:19:20.281Z,100210.59
2022-11-20T09:20:19.408Z,100200.03
2022-11-20T09:21:21.683Z,100198.25
2022-11-20T09:22:23.905Z,100192.97
2022-11-20T09:23:26.884Z,100192.94
2022-11-20T09:24:29.329Z,100198.03
2022-11-20T09:25:31.752Z,100188.31
2022-11-20T09:26:33.928Z,100188.41
2022-11-20T09:27:36.644Z,100191.94
2022-11-20T09:28:39.390Z,100188.31
2022-11-20T09:29:41.514Z,100192.56
2022-11-20T09:30:43.841Z,100191.69
2022-11-20T09:31:46.308Z,100189.84
2022-11-20T09:32:48.460Z,100184.47
2022-11-20T09:33:50.782Z,100185.22
2022-11-20T09:34:53.316Z,100188.53
2022-11-20T09:35:55.740Z,100185.88
2022-11-20T09:37:00.329Z,100186.66
2022-11-20T09:38:09.128Z,100180.53
2022-11-20T09:39:11.251Z,100188.47
2022-11-20T09:40:26.399Z,100175.25
2022-11-20T09:41:55.236Z,100188.63
2022-11-20T09:43:22.828Z,100190.34
2022-11-20T09:44:50.883Z,100193.16
2022-11-20T09:46:35.909Z,100186.09
2022-11-20T09:48:20.195Z,100190.25
2022-11-20T09:49:25.223Z,100181.25
2022-11-20T09:50:48.788Z,100185.78
2022-11-20T09:51:54.065Z,100181.38
2022-11-20T09:53:17.917Z,100180.50
2022-11-20T09:54:34.777Z,100173.53
2022-11-20T09:55:38.058Z,100174.47
2022-11-20T09:56:43.703Z,100172.78
2022-11-20T09:57:49.464Z,100174.56
2022-11-20T09:58:54.893Z,100167.69
2022-11-20T10:00:00.332Z,100173.81
2022-11-20T10:01:17.503Z,100164.00
2022-11-20T10:02:25.152Z,100162.09
2022-11-20T10:04:11.514Z,100159.28
2022-11-20T10:05:21.713Z,100159.25
2022-11-20T10:06:59.430Z,100161.25
2022-11-20T10:08:25.328Z,100150.69
2022-11-20T10:09:35.505Z,100154.94
2022-11-20T10:10:44.241Z,100151.44
2022-11-20T10:11:49.785Z,100153.22
2022-11-20T10:13:16.423Z,100152.31
2022-11-20T10:14:33.219Z,100140.84
2022-11-20T10:16:06.324Z,100145.28
2022-11-20T10:17:38.795Z,100147.09
2022-11-20T10:19:09.249Z,100141.72
2022-11-20T10:20:17.366Z,100144.44
2022-11-20T10:21:56.281Z,100137.41
2022-11-20T10:22:58.581Z,100141.56
2022-11-20T10:24:35.654Z,100135.13
2022-11-20T10:26:00.401Z,100142.84
2022-11-20T10:27:48.555Z,100142.22
2022-11-20T10:29:32.620Z,100135.91
2022-11-20T10:30:41.647Z,100140.13
2022-11-20T10:31:50.308Z,100137.38
2022-11-20T10:33:12.526Z,100129.28
2022-11-20T10:34:33.065Z,100138.03
2022-11-20T10:35:51.926Z,100135.22
2022-11-20T10:36:59.400Z,100130.81
2022-11-20T10:38:07.968Z,100116.81
2022-11-20T10:39:54.514Z,100127.22
2022-11-20T10:41:21.530Z,100130.63
2022-11-20T10:42:35.545Z,100127.00
2022-11-20T10:43:38.056Z,100128.69
2022-11-20T10:45:05.667Z,100118.13
2022-11-20T10:46:21.094Z,100117.25
2022-11-20T10:47:23.542Z,100114.50
2022-11-20T10:48:27.499Z,100109.97
2022-11-20T10:49:31.714Z,100114.34
2022-11-20T10:50:37.282Z,100114.50
2022-11-20T10:51:59.006Z,100118.97
2022-11-20T10:53:19.492Z,100119.88
2022-11-20T10:54:33.676Z,100119.16
2022-11-20T10:55:42.041Z,100114.81
2022-11-20T10:56:50.319Z,100115.78
2022-11-20T10:58:11.702Z,100118.44
2022-11-20T10:59:25.923Z,100116.06
2022-11-20T11:00:28.346Z,100114.97
2022-11-20T11:01:30.614Z,100123.75
2022-11-20T11:02:47.025Z,100117.50
2022-11-20T11:03:51.988Z,100119.31
2022-11-20T11:04:55.266Z,100116.81
2022-11-20T11:06:15.563Z,100125.72
2022-11-20T11:07:26.082Z,100118.00
2022-11-20T11:08:35.517Z,100121.50
2022-11-20T11:09:43.878Z,100117.22
2022-11-20T11:10:54.184Z,100125.16
2022-11-20T11:11:56.431Z,100119.94
2022-11-20T11:12:58.773Z,100124.59
2022-11-20T11:14:15.943Z,100116.75
2022-11-20T11:15:37.624Z,100125.28
2022-11-20T11:16:54.592Z,100126.25
2022-11-20T11:17:57.675Z,100121.69
2022-11-20T11:19:29.313Z,100117.97
2022-11-20T11:20:32.833Z,100118.09
2022-11-20T11:21:36.774Z,100113.00
2022-11-20T11:22:49.687Z,100111.13
2022-11-20T11:24:26.848Z,100116.31
2022-11-20T11:25:29.574Z,100111.84
2022-11-20T11:26:31.769Z,100106.81
2022-11-20T11:27:34.138Z,100107.84
2022-11-20T11:28:36.377Z,100107.94
2022-11-20T11:29:38.820Z,100100.91
2022-11-20T11:30:45.783Z,100101.81
2022-11-20T11:31:47.973Z,100107.81
2022-11-20T11:32:50.565Z,100096.44
2022-11-20T11:33:53.045Z,100094.72
2022-11-20T11:35:07.657Z,100098.19
2022-11-20T11:36:22.970Z,100093.59
2022-11-20T11:37:28.667Z,100098.00
2022-11-20T11:38:38.913Z,100100.53
2022-11-20T11:39:43.138Z,100100.44
2022-11-20T11:40:45.731Z,100096.84
2022-11-20T11:41:48.656Z,100091.63
2022-11-20T11:42:56.979Z,100094.91
2022-11-20T11:44:23.263Z,100097.50
2022-11-20T11:45:25.936Z,100094.97
2022-11-20T11:46:32.870Z,100095.84
2022-11-20T11:47:43.937Z,100087.94
2022-11-20T11:49:06.475Z,100092.94
2022-11-20T11:50:27.798Z,100085.09
2022-11-20T11:51:40.419Z,100093.78
2022-11-20T11:53:04.028Z,100089.44
2022-11-20T11:54:24.903Z,100085.09
2022-11-20T11:55:43.893Z,100090.28
2022-11-20T11:56:47.057Z,100092.09
2022-11-20T11:58:05.500Z,100092.09
2022-11-20T11:59:14.429Z,100088.25
2022-11-20T12:00:18.916Z,100088.00
2022-11-20T12:01:50.171Z,100081.72
2022-11-20T12:03:16.219Z,100080.06
2022-11-20T12:04:31.403Z,100076.50
2022-11-20T12:05:44.086Z,100081.84
2022-11-20T12:06:52.929Z,100075.88
2022-11-20T12:08:13.337Z,100076.00
2022-11-20T12:09:19.626Z,100067.72
2022-11-20T12:10:27.822Z,100082.88
2022-11-20T12:11:47.777Z,100075.97
2022-11-20T12:13:16.525Z,100074.53
2022-11-20T12:14:25.106Z,100074.75
2022-11-20T12:15:31.801Z,100064.28
2022-11-20T12:16:37.679Z,100068.66
2022-11-20T12:17:41.543Z,100064.31
2022-11-20T12:18:44.431Z,100069.50
2022-11-20T12:19:46.813Z,100061.50
2022-11-20T12:21:24.021Z,100062.28
2022-11-20T12:22:44.992Z,100070.91
2022-11-20T12:23:59.737Z,100072.63
2022-11-20T12:25:14.012Z,100065.69
2022-11-20T12:26:49.943Z,100052.34
2022-11-20T12:28:10.163Z,100060.25
2022-11-20T12:29:14.944Z,100060.25
2022-11-20T12:30:22.517Z,100060.09
2022-11-20T12:31:37.306Z,100055.69
2022-11-20T12:32:51.551Z,100051.31
2022-11-20T12:34:05.733Z,100052.28